sensor_id;sensor_type;location;lat;lon;timestamp;P1;P2;P0
74428;PMS5003;62860;52.134;23.714;2022-12-24T00:04:36;21.8;16.5;11.8
74428;PMS5003;62860;52.134;23.714;2022-12-24T00:09:28;19.7;16.3;12.3
74428;PMS5003;62860;52.134;23.714;2022-12-24T00:15:08;23.4;16.4;11.8
74428;PMS5003;62860;52.134;23.714;2022-12-24T00:19:58;19.8;18;12.8
74428;PMS5003;62860;52.134;23.714;2022-12-24T00:25:00;17.4;15.4;11.2
74428;PMS5003;62860;52.134;23.714;2022-12-24T00:29:28;21.8;18;12.6
74428;PMS5003;62860;52.134;23.714;2022-12-24T00:34:44;28.3;21.8;12.8
74428;PMS5003;62860;52.134;23.714;2022-12-24T00:40:06;26.8;21;15.3
74428;PMS5003;62860;52.134;23.714;2022-12-24T00:44:48;26.8;21.8;13.5
74428;PMS5003;62860;52.134;23.714;2022-12-24T00:49:46;24;20.4;15
74428;PMS5003;62860;52.134;23.714;2022-12-24T00:54:48;24.6;20.4;14
74428;PMS5003;62860;52.134;23.714;2022-12-24T00:59:28;24.8;20.8;13.3
74428;PMS5003;62860;52.134;23.714;2022-12-24T01:05:10;21.4;17.8;11.6
74428;PMS5003;62860;52.134;23.714;2022-12-24T01:09:30;21.4;17.8;11.6
74428;PMS5003;62860;52.134;23.714;2022-12-24T01:14:56;23.2;17;13.4
74428;PMS5003;62860;52.134;23.714;2022-12-24T01:19:48;17.8;13.4;9.6
74428;PMS5003;62860;52.134;23.714;2022-12-24T01:24:28;19.6;16.2;12.2
74428;PMS5003;62860;52.134;23.714;2022-12-24T01:30:12;16.4;15;11.2
74428;PMS5003;62860;52.134;23.714;2022-12-24T01:34:38;16.4;15;11.2
74428;PMS5003;62860;52.134;23.714;2022-12-24T01:39:28;20.8;16.4;12.8
74428;PMS5003;62860;52.134;23.714;2022-12-24T01:44:30;22;18.4;13.6
74428;PMS5003;62860;52.134;23.714;2022-12-24T01:49:41;22.6;18.4;11.8
74428;PMS5003;62860;52.134;23.714;2022-12-24T01:55:11;15.6;13.2;10.6
74428;PMS5003;62860;52.134;23.714;2022-12-24T02:00:13;12.8;10.5;8
74428;PMS5003;62860;52.134;23.714;2022-12-24T02:04:41;12.8;10.5;8
74428;PMS5003;62860;52.134;23.714;2022-12-24T02:09:28;17.6;13.2;10
74428;PMS5003;62860;52.134;23.714;2022-12-24T02:14:38;12.6;11.4;8
74428;PMS5003;62860;52.134;23.714;2022-12-24T02:20:34;14.6;11.8;10.2
74428;PMS5003;62860;52.134;23.714;2022-12-24T02:24:43;14.6;11.8;10.2
74428;PMS5003;62860;52.134;23.714;2022-12-24T02:30:01;12.4;11.4;9
74428;PMS5003;62860;52.134;23.714;2022-12-24T02:34:29;16.6;11.4;8
74428;PMS5003;62860;52.134;23.714;2022-12-24T02:40:11;16.2;13.2;9.6
74428;PMS5003;62860;52.134;23.714;2022-12-24T02:45:11;21.4;17.8;13
74428;PMS5003;62860;52.134;23.714;2022-12-24T02:49:41;21.4;17.8;13
74428;PMS5003;62860;52.134;23.714;2022-12-24T02:54:50;23.2;18;13
74428;PMS5003;62860;52.134;23.714;2022-12-24T02:59:33;20.6;16.6;12.8
74428;PMS5003;62860;52.134;23.714;2022-12-24T03:05:12;15.4;12.4;9.8
74428;PMS5003;62860;52.134;23.714;2022-12-24T03:10:09;15.4;12.4;9.8
74428;PMS5003;62860;52.134;23.714;2022-12-24T03:14:28;13.2;11;9
74428;PMS5003;62860;52.134;23.714;2022-12-24T03:19:28;14.2;12;9.2
74428;PMS5003;62860;52.134;23.714;2022-12-24T03:24:58;12.2;9.8;8
74428;PMS5003;62860;52.134;23.714;2022-12-24T03:30:11;14.8;12.6;9.4
74428;PMS5003;62860;52.134;23.714;2022-12-24T03:35:10;13.2;10.6;8.2
74428;PMS5003;62860;52.134;23.714;2022-12-24T03:39:58;13.2;10.6;8.2
74428;PMS5003;62860;52.134;23.714;2022-12-24T03:44:48;12.6;10.6;8.4
74428;PMS5003;62860;52.134;23.714;2022-12-24T03:49:38;13;11;8.2
74428;PMS5003;62860;52.134;23.714;2022-12-24T03:55:10;13;11.4;7.6
74428;PMS5003;62860;52.134;23.714;2022-12-24T04:00:11;11.4;9.8;8
74428;PMS5003;62860;52.134;23.714;2022-12-24T04:04:38;11.4;9.8;8
74428;PMS5003;62860;52.134;23.714;2022-12-24T04:09:38;12;10.6;9
74428;PMS5003;62860;52.134;23.714;2022-12-24T04:14:28;13.8;11.6;8
74428;PMS5003;62860;52.134;23.714;2022-12-24T04:20:12;14.8;11.8;9.2
74428;PMS5003;62860;52.134;23.714;2022-12-24T04:25:12;14.2;10.6;7.4
74428;PMS5003;62860;52.134;23.714;2022-12-24T04:30:00;14.2;10.6;7.4
74428;PMS5003;62860;52.134;23.714;2022-12-24T04:34:50;13.4;11.2;7.2
74428;PMS5003;62860;52.134;23.714;2022-12-24T04:39:48;14;12;8.4
74428;PMS5003;62860;52.134;23.714;2022-12-24T04:45:12;13.8;11.2;9.6
74428;PMS5003;62860;52.134;23.714;2022-12-24T04:50:10;10.8;10.6;9
74428;PMS5003;62860;52.134;23.714;2022-12-24T04:54:28;10.8;10.6;9
74428;PMS5003;62860;52.134;23.714;2022-12-24T04:59:38;12;10;8.6
74428;PMS5003;62860;52.134;23.714;2022-12-24T05:04:36;16.6;13.6;10.8
74428;PMS5003;62860;52.134;23.714;2022-12-24T05:10:08;14.6;11.8;9.4
74428;PMS5003;62860;52.134;23.714;2022-12-24T05:15:12;16.8;14.2;10.2
74428;PMS5003;62860;52.134;23.714;2022-12-24T05:20:02;16.8;14.2;10.2
74428;PMS5003;62860;52.134;23.714;2022-12-24T05:25:02;14.8;13.8;11
74428;PMS5003;62860;52.134;23.714;2022-12-24T05:29:28;19.6;15.6;12.4
74428;PMS5003;62860;52.134;23.714;2022-12-24T05:35:12;21.6;18;13.6
74428;PMS5003;62860;52.134;23.714;2022-12-24T05:40:10;20;16.8;12.6
74428;PMS5003;62860;52.134;23.714;2022-12-24T05:44:48;20;16.8;12.6
74428;PMS5003;62860;52.134;23.714;2022-12-24T05:49:50;19.3;15.7;12
74428;PMS5003;62860;52.134;23.714;2022-12-24T05:54:38;17.6;15.2;11
74428;PMS5003;62860;52.134;23.714;2022-12-24T06:00:12;15;10.5;8.5
74428;PMS5003;62860;52.134;23.714;2022-12-24T06:05:12;15;13.2;10.4
74428;PMS5003;62860;52.134;23.714;2022-12-24T06:09:38;15;13.2;10.4
74428;PMS5003;62860;52.134;23.714;2022-12-24T06:15:00;17.6;13.2;10.2
74428;PMS5003;62860;52.134;23.714;2022-12-24T06:19:28;16;12.8;10.2
74428;PMS5003;62860;52.134;23.714;2022-12-24T06:25:10;16;13.2;9.2
74428;PMS5003;62860;52.134;23.714;2022-12-24T06:30:08;16;13.2;9.2
74428;PMS5003;62860;52.134;23.714;2022-12-24T06:35:02;17.3;14;9.5
74428;PMS5003;62860;52.134;23.714;2022-12-24T06:39:26;20.6;17.8;13.6
74428;PMS5003;62860;52.134;23.714;2022-12-24T06:44:36;20.5;19.5;13
74428;PMS5003;62860;52.134;23.714;2022-12-24T06:55:10;22.3;20.3;14
74428;PMS5003;62860;52.134;23.714;2022-12-24T06:59:50;22.3;20.3;14
74428;PMS5003;62860;52.134;23.714;2022-12-24T07:05:04;14.5;13.5;9
